Terminal Aerodrome Forecast
Issued by NWS

Home | Current Version | Previous Version | Text Only | Print | Product List | Glossary On
Versions: 1 2 3 4 5 6 7 8 9 10 11 12 13
000
FTUS42 TJSJ 232300
TAFISX
TAF
TISX 232328Z 2400/2424 11010KT P6SM VCSH SCT025 SCT050
     FM241300 10013KT P6SM FEW025 SCT070
     FM242300 06006KT P6SM FEW025=

USA.gov is the U.S. government's official web portal to all federal, state and local government web resources and services.